createdAt,value
2022-12-26T00:00:55.689Z,2.33
2022-12-26T00:02:59.570Z,3.25
2022-12-26T00:05:03.275Z,2.55
2022-12-26T00:07:07.081Z,2.70
2022-12-26T00:09:12.193Z,2.30
2022-12-26T00:11:16.594Z,2.70
2022-12-26T00:13:40.033Z,2.63
2022-12-26T00:15:44.247Z,2.25
2022-12-26T00:17:48.039Z,2.05
2022-12-26T00:19:51.659Z,2.30
2022-12-26T00:21:57.535Z,2.22
2022-12-26T00:24:02.104Z,2.10
2022-12-26T00:26:07.773Z,2.17
2022-12-26T00:28:11.452Z,2.00
2022-12-26T00:30:15.156Z,2.30
2022-12-26T00:32:18.754Z,2.10
2022-12-26T00:34:22.496Z,1.40
2022-12-26T00:36:28.167Z,1.98
2022-12-26T00:38:31.895Z,2.50
2022-12-26T00:40:35.598Z,2.53
2022-12-26T00:42:40.582Z,1.85
2022-12-26T00:44:44.279Z,1.95
2022-12-26T00:46:47.929Z,2.15
2022-12-26T00:48:51.623Z,2.65
2022-12-26T00:50:55.327Z,2.28
2022-12-26T00:52:59.083Z,2.40
2022-12-26T00:55:02.933Z,2.17
2022-12-26T00:57:06.627Z,2.80
2022-12-26T00:59:11.658Z,2.72
2022-12-26T01:01:16.736Z,2.13
2022-12-26T01:03:21.089Z,2.65
2022-12-26T01:05:24.700Z,2.03
2022-12-26T01:07:28.271Z,1.60
2022-12-26T01:09:31.856Z,1.67
2022-12-26T01:11:41.353Z,2.05
2022-12-26T01:13:46.353Z,1.75
2022-12-26T01:15:52.312Z,2.20
2022-12-26T01:17:55.903Z,1.55
2022-12-26T01:19:59.606Z,1.50
2022-12-26T01:22:03.217Z,1.50
2022-12-26T01:24:07.157Z,1.73
2022-12-26T01:26:17.049Z,1.63
2022-12-26T01:28:23.672Z,2.10
2022-12-26T01:30:27.323Z,1.75
2022-12-26T01:32:32.414Z,1.33
2022-12-26T01:34:36.050Z,1.60
2022-12-26T01:36:39.677Z,2.22
2022-12-26T01:38:44.476Z,1.40
2022-12-26T01:40:48.140Z,1.65
2022-12-26T01:42:51.702Z,1.70
2022-12-26T01:45:00.653Z,1.85
2022-12-26T01:47:04.288Z,1.58
2022-12-26T01:49:11.381Z,1.63
2022-12-26T01:51:14.659Z,1.65
2022-12-26T01:53:21.747Z,1.75
2022-12-26T01:55:25.632Z,1.88
2022-12-26T01:57:31.327Z,1.48
2022-12-26T01:59:35.938Z,1.70
2022-12-26T02:01:41.462Z,1.45
2022-12-26T02:04:03.964Z,1.40
2022-12-26T02:06:11.346Z,1.23
2022-12-26T02:08:16.625Z,1.63
2022-12-26T02:10:22.569Z,1.45
2022-12-26T02:12:35.673Z,2.33
2022-12-26T02:14:42.045Z,2.53
2022-12-26T02:16:46.449Z,1.63
2022-12-26T02:18:49.961Z,1.80
2022-12-26T02:21:00.492Z,1.52
2022-12-26T02:23:22.451Z,1.40
2022-12-26T02:25:38.048Z,1.70
2022-12-26T02:27:51.784Z,1.30
2022-12-26T02:30:03.397Z,2.67
2022-12-26T02:32:12.286Z,2.53
2022-12-26T02:34:17.341Z,1.45
2022-12-26T02:36:41.580Z,1.55
2022-12-26T02:38:49.590Z,1.58
2022-12-26T02:40:57.341Z,1.63
2022-12-26T02:43:01.479Z,1.63
2022-12-26T02:45:27.618Z,1.80
2022-12-26T02:47:36.798Z,1.60
2022-12-26T02:50:08.725Z,2.78
2022-12-26T02:52:35.567Z,1.80
2022-12-26T02:54:58.224Z,1.67
2022-12-26T02:57:24.386Z,2.13
2022-12-26T02:59:56.444Z,2.08
2022-12-26T03:02:20.597Z,1.55
2022-12-26T03:04:47.049Z,1.70
2022-12-26T03:07:12.493Z,2.10
2022-12-26T03:09:35.480Z,2.08
2022-12-26T03:11:59.217Z,1.63
2022-12-26T03:14:07.177Z,1.65
2022-12-26T03:16:29.542Z,1.70
2022-12-26T03:18:57.705Z,2.22
2022-12-26T03:21:01.175Z,1.58
2022-12-26T03:23:07.616Z,1.75
2022-12-26T03:25:30.081Z,1.70
2022-12-26T03:27:34.063Z,1.10
2022-12-26T03:29:55.373Z,1.98
2022-12-26T03:31:59.357Z,1.38
2022-12-26T03:34:17.848Z,1.23
2022-12-26T03:36:30.203Z,1.40
2022-12-26T03:38:36.787Z,1.83
2022-12-26T03:41:11.949Z,1.45
2022-12-26T03:43:40.176Z,1.40
2022-12-26T03:46:04.844Z,1.23
2022-12-26T03:48:32.509Z,1.55
2022-12-26T03:50:55.266Z,1.80
2022-12-26T03:53:22.072Z,1.23
2022-12-26T03:55:46.093Z,1.50
2022-12-26T03:58:09.330Z,1.80
2022-12-26T04:00:31.816Z,1.52
2022-12-26T04:02:53.350Z,1.77
2022-12-26T04:05:16.125Z,1.50
2022-12-26T04:07:56.715Z,1.40
2022-12-26T04:10:23.719Z,1.40
2022-12-26T04:12:47.187Z,1.55
2022-12-26T04:15:12.468Z,1.20
2022-12-26T04:17:37.266Z,2.17
2022-12-26T04:19:49.467Z,1.15
2022-12-26T04:22:13.115Z,1.55
2022-12-26T04:24:36.711Z,1.67
2022-12-26T04:27:03.027Z,2.08
2022-12-26T04:29:24.311Z,1.95
2022-12-26T04:31:47.656Z,1.40
2022-12-26T04:34:11.387Z,1.85
2022-12-26T04:36:35.489Z,1.67
2022-12-26T04:38:59.229Z,1.60
2022-12-26T04:41:21.451Z,1.85
2022-12-26T04:43:48.894Z,2.30
2022-12-26T04:45:54.439Z,1.50
2022-12-26T04:48:15.650Z,1.60
2022-12-26T04:50:19.216Z,2.25
2022-12-26T04:52:22.812Z,1.90
2022-12-26T04:54:26.794Z,1.90
2022-12-26T04:56:30.426Z,2.50
2022-12-26T04:58:35.526Z,1.92
2022-12-26T05:00:39.257Z,1.90
2022-12-26T05:02:56.936Z,1.65
2022-12-26T05:05:18.089Z,1.40
2022-12-26T05:07:40.216Z,2.25
2022-12-26T05:09:43.841Z,1.52
2022-12-26T05:11:47.473Z,2.10
2022-12-26T05:13:53.263Z,2.08
2022-12-26T05:16:14.536Z,1.90
2022-12-26T05:18:35.456Z,1.98
2022-12-26T05:20:59.406Z,1.42
2022-12-26T05:23:22.150Z,1.95
2022-12-26T05:25:44.404Z,1.45
2022-12-26T05:28:05.885Z,2.08
2022-12-26T05:30:12.242Z,1.60
2022-12-26T05:32:29.660Z,1.40
2022-12-26T05:34:33.178Z,1.20
2022-12-26T05:36:39.790Z,2.00
2022-12-26T05:38:43.531Z,1.83
2022-12-26T05:40:47.173Z,2.00
2022-12-26T05:42:50.720Z,2.20
2022-12-26T05:44:54.318Z,1.60
2022-12-26T05:46:59.524Z,1.70
2022-12-26T05:49:03.344Z,1.85
2022-12-26T05:51:07.203Z,1.40
2022-12-26T05:53:10.843Z,2.03
2022-12-26T05:55:14.547Z,1.70
2022-12-26T05:57:18.199Z,1.77
2022-12-26T05:59:21.788Z,1.90
2022-12-26T06:01:25.906Z,1.50
2022-12-26T06:03:31.177Z,2.03
2022-12-26T06:05:34.859Z,1.90
2022-12-26T06:07:38.557Z,1.75
2022-12-26T06:09:42.088Z,1.90
2022-12-26T06:11:48.996Z,1.35
2022-12-26T06:13:52.873Z,1.80
2022-12-26T06:15:56.649Z,2.20
2022-12-26T06:18:00.330Z,1.40
2022-12-26T06:20:05.611Z,1.85
2022-12-26T06:22:09.457Z,1.20
2022-12-26T06:24:14.146Z,1.95
2022-12-26T06:26:18.078Z,1.35
2022-12-26T06:28:22.018Z,1.83
2022-12-26T06:30:25.626Z,3.10
2022-12-26T06:32:29.325Z,1.80
2022-12-26T06:34:33.028Z,2.05
2022-12-26T06:36:38.660Z,3.45
2022-12-26T06:38:42.382Z,1.98
2022-12-26T06:40:46.161Z,3.17
2022-12-26T06:42:49.774Z,2.45
2022-12-26T06:44:53.352Z,2.13
2022-12-26T06:46:57.119Z,2.50
2022-12-26T06:49:00.864Z,2.20
2022-12-26T06:51:06.192Z,1.67
2022-12-26T06:53:11.061Z,1.80
2022-12-26T06:55:14.685Z,1.65
2022-12-26T06:57:18.294Z,1.83
2022-12-26T06:59:21.910Z,2.78
2022-12-26T07:01:26.426Z,1.77
2022-12-26T07:03:30.189Z,2.10
2022-12-26T07:05:33.823Z,1.90
2022-12-26T07:07:37.423Z,1.80
2022-12-26T07:09:42.293Z,2.15
2022-12-26T07:11:46.886Z,2.30
2022-12-26T07:13:50.398Z,2.65
2022-12-26T07:15:54.207Z,2.30
2022-12-26T07:17:57.813Z,2.20
2022-12-26T07:20:01.516Z,2.50
2022-12-26T07:22:05.134Z,2.47
2022-12-26T07:24:09.367Z,2.50
2022-12-26T07:26:14.325Z,2.25
2022-12-26T07:28:18.226Z,2.20
2022-12-26T07:30:21.828Z,2.00
2022-12-26T07:32:25.607Z,1.80
2022-12-26T07:34:31.946Z,1.70
2022-12-26T07:36:35.906Z,1.90
2022-12-26T07:38:39.943Z,1.63
2022-12-26T07:40:43.725Z,2.22
2022-12-26T07:42:47.711Z,2.50
2022-12-26T07:44:51.265Z,2.08
2022-12-26T07:46:55.080Z,2.10
2022-12-26T07:48:58.788Z,2.08
2022-12-26T07:51:03.627Z,1.60
2022-12-26T07:53:07.268Z,1.63
2022-12-26T07:55:11.522Z,2.08
2022-12-26T07:57:46.834Z,3.63
2022-12-26T07:59:40.534Z,2.38
2022-12-26T08:01:45.651Z,2.08
2022-12-26T08:03:50.264Z,1.85
2022-12-26T08:05:53.945Z,1.90
2022-12-26T08:07:57.621Z,2.08
2022-12-26T08:10:01.157Z,2.13
2022-12-26T08:12:04.713Z,4.00
2022-12-26T08:14:08.347Z,2.08
2022-12-26T08:16:14.993Z,3.00
2022-12-26T08:18:18.706Z,1.88
2022-12-26T08:20:22.327Z,2.15
2022-12-26T08:22:25.826Z,2.38
2022-12-26T08:24:29.418Z,2.30
2022-12-26T08:26:33.012Z,2.15
2022-12-26T08:28:36.575Z,2.45
2022-12-26T08:30:41.463Z,4.90
2022-12-26T08:32:46.692Z,3.80
2022-12-26T08:34:50.304Z,2.97
2022-12-26T08:36:53.912Z,2.90
2022-12-26T08:38:57.659Z,4.40
2022-12-26T08:41:01.558Z,3.67
2022-12-26T08:43:21.947Z,3.40
2022-12-26T08:45:29.658Z,3.42
2022-12-26T08:47:33.240Z,2.50
2022-12-26T08:49:38.195Z,3.22
2022-12-26T08:51:41.850Z,2.27
2022-12-26T08:53:46.308Z,2.60
2022-12-26T08:55:49.907Z,2.33
2022-12-26T08:57:53.497Z,1.93
2022-12-26T08:59:57.107Z,1.70
2022-12-26T09:02:00.819Z,2.30
2022-12-26T09:04:06.757Z,1.97
2022-12-26T09:06:12.336Z,2.10
2022-12-26T09:08:15.972Z,2.00
2022-12-26T09:10:19.801Z,2.33
2022-12-26T09:12:23.349Z,2.47
2022-12-26T09:14:26.920Z,2.30
2022-12-26T09:16:37.460Z,2.00
2022-12-26T09:18:43.267Z,2.10
2022-12-26T09:20:46.896Z,2.30
2022-12-26T09:22:50.829Z,2.40
2022-12-26T09:24:54.525Z,2.67
2022-12-26T09:26:58.716Z,2.33
2022-12-26T09:29:02.419Z,2.00
2022-12-26T09:31:07.273Z,3.10
2022-12-26T09:33:11.204Z,2.07
2022-12-26T09:35:14.913Z,2.00
2022-12-26T09:37:18.503Z,1.80
2022-12-26T09:39:23.597Z,2.30
2022-12-26T09:41:40.798Z,1.63
2022-12-26T09:43:50.702Z,1.97
2022-12-26T09:45:59.786Z,1.40
2022-12-26T09:48:06.942Z,1.57
2022-12-26T09:50:12.949Z,1.77
2022-12-26T09:52:18.776Z,2.70
2022-12-26T09:54:28.756Z,2.20
2022-12-26T09:58:58.126Z,2.30
2022-12-26T10:01:04.060Z,2.37
2022-12-26T10:03:11.602Z,1.50
2022-12-26T10:05:15.478Z,1.83
2022-12-26T10:07:23.347Z,1.87
2022-12-26T10:09:42.568Z,1.87
2022-12-26T10:11:53.550Z,2.07
2022-12-26T10:13:59.333Z,2.03
2022-12-26T10:16:06.782Z,2.27
2022-12-26T10:18:20.307Z,2.07
2022-12-26T10:20:28.064Z,1.77
2022-12-26T10:22:49.686Z,1.97
2022-12-26T10:24:54.210Z,1.87
2022-12-26T10:27:02.161Z,1.87
2022-12-26T10:29:11.952Z,1.70
2022-12-26T10:31:18.415Z,2.20
2022-12-26T10:33:25.185Z,2.27
2022-12-26T10:35:32.760Z,2.00
2022-12-26T10:37:38.219Z,1.90
2022-12-26T10:39:45.048Z,2.30
2022-12-26T10:41:49.328Z,1.63
2022-12-26T10:43:55.037Z,1.53
2022-12-26T10:46:17.757Z,1.30
2022-12-26T10:48:21.362Z,1.60
2022-12-26T10:50:27.875Z,1.77
2022-12-26T10:52:33.843Z,1.73
2022-12-26T10:54:37.374Z,1.40
2022-12-26T10:56:41.371Z,1.67
2022-12-26T10:58:45.679Z,1.30
2022-12-26T11:00:50.802Z,1.30
2022-12-26T11:03:04.560Z,1.50
2022-12-26T11:05:21.863Z,1.87
2022-12-26T11:07:35.726Z,2.10
2022-12-26T11:09:41.544Z,1.70
2022-12-26T11:11:53.031Z,1.30
2022-12-26T11:14:02.240Z,1.63
2022-12-26T11:16:09.123Z,3.80
2022-12-26T11:18:19.214Z,2.83
2022-12-26T11:20:27.972Z,1.70
2022-12-26T11:22:32.108Z,1.60
2022-12-26T11:24:35.811Z,1.77
2022-12-26T11:26:39.912Z,2.47
2022-12-26T11:28:43.444Z,1.70
2022-12-26T11:30:49.604Z,1.40
2022-12-26T11:33:13.689Z,1.57
2022-12-26T11:35:19.422Z,1.70
2022-12-26T11:37:25.821Z,1.80
2022-12-26T11:39:30.649Z,1.77
2022-12-26T11:41:37.029Z,1.80
2022-12-26T11:43:41.118Z,1.47
2022-12-26T11:45:50.859Z,1.70
2022-12-26T11:47:57.789Z,2.00
2022-12-26T11:50:02.452Z,2.90
2022-12-26T11:52:26.325Z,1.53
2022-12-26T11:54:31.735Z,1.57
2022-12-26T11:56:35.279Z,1.47
2022-12-26T11:58:39.129Z,1.60
2022-12-26T12:00:43.544Z,1.57
2022-12-26T12:02:47.814Z,1.70
2022-12-26T12:04:54.174Z,1.30
2022-12-26T12:07:03.073Z,1.70
2022-12-26T12:09:13.427Z,2.83
2022-12-26T12:11:27.240Z,4.53
2022-12-26T12:13:37.596Z,3.83
2022-12-26T12:15:46.340Z,3.73
2022-12-26T12:17:51.619Z,4.63
2022-12-26T12:20:07.915Z,4.07
2022-12-26T12:22:29.078Z,3.80
2022-12-26T12:24:47.338Z,3.70
2022-12-26T12:27:03.224Z,3.50
2022-12-26T12:29:21.288Z,3.80
2022-12-26T12:31:29.599Z,3.87
2022-12-26T12:33:39.356Z,3.37
2022-12-26T12:35:54.013Z,3.70
2022-12-26T12:38:15.283Z,2.90
2022-12-26T12:40:25.659Z,3.03
2022-12-26T12:42:36.486Z,2.93
2022-12-26T12:44:52.652Z,2.80
2022-12-26T12:47:06.202Z,3.40
2022-12-26T12:49:24.650Z,3.00
2022-12-26T12:51:36.130Z,2.43
2022-12-26T12:53:48.296Z,2.97
2022-12-26T12:56:03.731Z,3.63
2022-12-26T12:58:10.103Z,3.80
2022-12-26T13:00:15.839Z,4.50
2022-12-26T13:02:23.011Z,3.17
2022-12-26T13:04:29.379Z,3.27
2022-12-26T13:06:38.204Z,3.23
2022-12-26T13:08:43.574Z,4.00
2022-12-26T13:10:50.058Z,3.13
2022-12-26T13:12:54.765Z,3.93
2022-12-26T13:14:59.776Z,3.73
2022-12-26T13:17:05.319Z,4.10
2022-12-26T13:19:11.664Z,3.37
2022-12-26T13:21:16.032Z,3.77
2022-12-26T13:23:41.254Z,3.43
2022-12-26T13:25:46.802Z,3.17
2022-12-26T13:27:51.702Z,3.60
2022-12-26T13:29:55.292Z,3.50
2022-12-26T13:32:00.616Z,3.37
2022-12-26T13:34:05.496Z,3.80
2022-12-26T13:36:09.402Z,3.80
2022-12-26T13:38:12.902Z,3.03
2022-12-26T13:40:19.835Z,1.70
2022-12-26T13:42:52.656Z,1.70
2022-12-26T13:44:56.680Z,2.00
2022-12-26T13:47:00.884Z,1.93
2022-12-26T13:49:05.449Z,1.87
2022-12-26T13:51:29.770Z,2.10
2022-12-26T13:53:37.258Z,2.03
2022-12-26T13:55:44.896Z,2.57
2022-12-26T13:57:48.585Z,2.20
2022-12-26T14:00:03.076Z,2.90
2022-12-26T14:02:25.098Z,4.00
2022-12-26T14:04:50.096Z,3.27
2022-12-26T14:07:01.285Z,3.90
2022-12-26T14:09:17.922Z,5.10
2022-12-26T14:11:28.240Z,6.50
2022-12-26T14:13:37.488Z,5.57
2022-12-26T14:15:45.662Z,8.30
2022-12-26T14:17:53.934Z,5.43
2022-12-26T14:20:02.657Z,5.80
2022-12-26T14:22:10.124Z,6.70
2022-12-26T14:24:22.715Z,3.60
2022-12-26T14:26:31.882Z,3.43
2022-12-26T14:28:38.938Z,6.37
2022-12-26T14:30:54.806Z,3.53
2022-12-26T14:33:08.357Z,3.90
2022-12-26T14:35:16.876Z,3.13
2022-12-26T14:37:22.971Z,2.40
2022-12-26T14:39:32.357Z,2.97
2022-12-26T14:42:08.274Z,2.53
2022-12-26T14:44:13.081Z,3.70
2022-12-26T14:46:31.557Z,3.10
2022-12-26T14:48:49.455Z,2.13
2022-12-26T14:50:55.041Z,4.83
2022-12-26T14:53:18.940Z,2.60
2022-12-26T14:55:52.388Z,3.00
2022-12-26T14:57:57.953Z,3.13
2022-12-26T15:00:12.686Z,3.90
2022-12-26T15:02:33.389Z,2.50
2022-12-26T15:04:51.879Z,2.37
2022-12-26T15:07:16.924Z,3.50
2022-12-26T15:09:50.729Z,2.90
2022-12-26T15:12:04.682Z,2.93
2022-12-26T15:14:23.010Z,2.07
2022-12-26T15:16:37.825Z,2.60
2022-12-26T15:19:00.100Z,2.53
2022-12-26T15:21:17.662Z,2.83
2022-12-26T15:23:45.381Z,3.10
2022-12-26T15:26:09.768Z,3.33
2022-12-26T15:28:37.237Z,3.07
2022-12-26T15:30:49.702Z,2.77
2022-12-26T15:32:59.576Z,2.50
2022-12-26T15:35:07.513Z,2.23
2022-12-26T15:37:14.414Z,2.42
2022-12-26T15:39:23.217Z,2.30
2022-12-26T15:41:31.652Z,2.42
2022-12-26T15:43:50.028Z,2.90
2022-12-26T15:45:56.620Z,2.50
2022-12-26T15:48:04.792Z,2.63
2022-12-26T15:50:21.294Z,2.83
2022-12-26T15:52:30.345Z,2.87
2022-12-26T15:54:52.639Z,3.20
2022-12-26T15:57:05.101Z,2.95
2022-12-26T15:59:15.297Z,3.67
2022-12-26T16:01:33.866Z,3.50
2022-12-26T16:03:42.481Z,2.40
2022-12-26T16:05:53.331Z,2.83
2022-12-26T16:08:00.466Z,3.25
2022-12-26T16:10:04.373Z,2.50
2022-12-26T16:12:21.133Z,2.38
2022-12-26T16:14:29.671Z,3.00
2022-12-26T16:16:35.227Z,3.28
2022-12-26T16:18:40.154Z,2.72
2022-12-26T16:21:16.459Z,2.70
2022-12-26T16:23:21.285Z,3.40
2022-12-26T16:25:27.172Z,4.57
2022-12-26T16:27:31.743Z,3.70
2022-12-26T16:29:35.575Z,3.28
2022-12-26T16:31:39.530Z,4.10
2022-12-26T16:33:45.170Z,3.28
2022-12-26T16:35:48.871Z,3.50
2022-12-26T16:37:52.814Z,3.65
2022-12-26T16:40:23.033Z,3.65
2022-12-26T16:42:31.002Z,3.25
2022-12-26T16:44:38.451Z,3.50
2022-12-26T16:46:42.173Z,6.65
2022-12-26T16:48:48.824Z,9.82
2022-12-26T16:50:53.476Z,8.88
2022-12-26T16:53:05.013Z,5.75
2022-12-26T16:55:35.935Z,5.18
2022-12-26T16:57:43.259Z,4.40
2022-12-26T16:59:50.559Z,7.38
2022-12-26T17:01:56.585Z,4.47
2022-12-26T17:04:04.063Z,6.88
2022-12-26T17:06:09.500Z,6.50
2022-12-26T17:08:15.260Z,5.25
2022-12-26T17:10:20.701Z,4.18
2022-12-26T17:12:26.041Z,4.35
2022-12-26T17:14:31.172Z,4.50
2022-12-26T17:16:35.120Z,4.30
2022-12-26T17:18:44.787Z,4.93
2022-12-26T17:20:49.948Z,4.40
2022-12-26T17:22:54.367Z,4.57
2022-12-26T17:25:12.925Z,4.43
2022-12-26T17:27:20.581Z,4.45
2022-12-26T17:29:54.107Z,4.78
2022-12-26T17:32:00.871Z,4.43
2022-12-26T17:34:06.385Z,3.90
2022-12-26T17:38:37.862Z,4.40
2022-12-26T17:40:42.585Z,4.93
2022-12-26T17:42:47.327Z,3.75
2022-12-26T17:44:50.813Z,4.07
2022-12-26T17:46:54.410Z,5.18
2022-12-26T17:48:58.081Z,5.78
2022-12-26T17:51:02.557Z,7.40
2022-12-26T17:53:09.083Z,6.05
2022-12-26T17:55:17.056Z,4.20
2022-12-26T17:57:22.086Z,5.57
2022-12-26T17:59:25.696Z,4.43
2022-12-26T18:01:29.827Z,4.85
2022-12-26T18:03:33.490Z,5.15
2022-12-26T18:05:37.516Z,5.47
2022-12-26T18:07:41.604Z,5.07
2022-12-26T18:09:47.231Z,4.43
2022-12-26T18:11:51.154Z,4.65
2022-12-26T18:14:50.200Z,4.25
2022-12-26T18:16:57.988Z,3.92
2022-12-26T18:19:01.589Z,3.30
2022-12-26T18:21:06.067Z,6.25
2022-12-26T18:23:12.386Z,4.22
2022-12-26T18:25:18.275Z,3.60
2022-12-26T18:27:22.897Z,4.65
2022-12-26T19:43:20.042Z,2.10
2022-12-26T19:45:37.542Z,3.08
2022-12-26T19:47:41.300Z,2.40
2022-12-26T19:49:45.291Z,2.25
2022-12-26T19:51:49.012Z,1.67
2022-12-26T19:53:52.536Z,2.20
2022-12-26T19:55:56.268Z,1.98
2022-12-26T19:57:59.930Z,1.65
2022-12-26T20:00:09.368Z,1.52
2022-12-26T20:02:14.322Z,1.63
2022-12-26T20:04:17.989Z,2.00
2022-12-26T20:06:22.424Z,1.90
2022-12-26T20:08:25.938Z,1.90
2022-12-26T20:10:29.565Z,4.30
2022-12-26T20:12:33.083Z,3.55
2022-12-26T20:14:37.517Z,2.27
2022-12-26T20:19:06.580Z,1.98
2022-12-26T20:21:10.933Z,2.05
2022-12-26T20:23:14.495Z,2.13
2022-12-26T20:25:18.148Z,2.40
2022-12-26T20:27:21.728Z,1.90
2022-12-26T20:29:26.031Z,2.00
2022-12-26T20:31:33.758Z,2.30
2022-12-26T20:33:42.969Z,2.90
2022-12-26T20:35:47.781Z,2.63
2022-12-26T20:37:51.759Z,2.55
2022-12-26T20:39:59.264Z,2.22
2022-12-26T20:42:03.579Z,2.60
2022-12-26T20:44:08.470Z,2.00
2022-12-26T20:46:13.982Z,1.95
2022-12-26T20:48:17.569Z,2.47
2022-12-26T20:50:22.923Z,2.72
2022-12-26T20:52:26.505Z,2.10
2022-12-26T20:54:30.176Z,2.30
2022-12-26T20:56:34.629Z,2.13
2022-12-26T20:58:38.624Z,1.67
2022-12-26T21:00:44.970Z,2.10
2022-12-26T21:02:48.723Z,2.40
2022-12-26T21:04:52.585Z,2.45
2022-12-26T21:06:57.800Z,2.45
2022-12-26T21:09:01.543Z,2.05
2022-12-26T21:11:08.781Z,2.53
2022-12-26T21:13:12.583Z,2.53
2022-12-26T21:15:16.314Z,2.37
2022-12-26T21:17:19.834Z,2.17
2022-12-26T21:19:23.887Z,2.10
2022-12-26T21:21:28.794Z,2.17
2022-12-26T21:23:33.876Z,1.80
2022-12-26T21:25:37.408Z,2.17
2022-12-26T21:27:42.953Z,2.30
2022-12-26T21:29:46.857Z,2.43
2022-12-26T21:31:51.038Z,1.80
2022-12-26T21:33:56.850Z,1.83
2022-12-26T21:36:00.459Z,2.20
2022-12-26T21:38:03.019Z,2.73
2022-12-26T21:40:08.803Z,2.55
2022-12-26T21:42:12.507Z,2.13
2022-12-26T21:44:16.231Z,2.30
2022-12-26T21:46:21.520Z,1.87
2022-12-26T21:48:25.197Z,1.90
2022-12-26T21:50:28.791Z,1.87
2022-12-26T21:52:32.336Z,1.87
2022-12-26T21:54:53.515Z,2.07
2022-12-26T21:56:58.500Z,1.30
2022-12-26T21:59:19.777Z,1.90
2022-12-26T22:01:24.219Z,1.50
2022-12-26T22:03:45.259Z,1.47
2022-12-26T22:05:48.938Z,1.90
2022-12-26T22:07:54.296Z,1.90
2022-12-26T22:09:57.864Z,1.50
2022-12-26T22:12:19.722Z,1.50
2022-12-26T22:14:23.466Z,1.70
2022-12-26T22:16:27.328Z,1.80
2022-12-26T22:18:31.064Z,1.83
2022-12-26T22:20:35.581Z,1.90
2022-12-26T22:22:39.178Z,1.77
2022-12-26T22:24:42.738Z,1.70
2022-12-26T22:26:46.231Z,1.67
2022-12-26T22:28:51.367Z,1.80
2022-12-26T22:30:54.880Z,1.30
2022-12-26T22:32:58.496Z,1.50
2022-12-26T22:35:02.065Z,1.30
2022-12-26T22:37:05.600Z,1.53
2022-12-26T22:39:09.262Z,1.30
2022-12-26T22:41:13.221Z,1.50
2022-12-26T22:43:16.788Z,1.60
2022-12-26T22:45:21.769Z,1.90
2022-12-26T22:47:25.268Z,1.67
2022-12-26T22:49:29.110Z,1.57
2022-12-26T22:51:32.611Z,1.50
2022-12-26T22:53:36.267Z,1.97
2022-12-26T22:55:40.243Z,2.00
2022-12-26T22:57:48.155Z,1.90
2022-12-26T23:00:08.360Z,1.93
2022-12-26T23:02:15.445Z,2.17
2022-12-26T23:04:19.446Z,1.50
2022-12-26T23:06:24.126Z,2.23
2022-12-26T23:08:29.572Z,1.80
2022-12-26T23:10:33.815Z,1.60
2022-12-26T23:12:46.830Z,1.53
2022-12-26T23:14:50.908Z,1.70
2022-12-26T23:16:56.240Z,1.40
2022-12-26T23:19:20.118Z,1.80
2022-12-26T23:21:42.406Z,3.33
2022-12-26T23:23:46.343Z,4.73
2022-12-26T23:25:50.011Z,4.20
2022-12-26T23:28:11.404Z,6.10
2022-12-26T23:30:21.475Z,5.97
2022-12-26T23:32:24.999Z,5.20
2022-12-26T23:34:29.981Z,5.93
2022-12-26T23:36:33.568Z,4.07
2022-12-26T23:38:37.082Z,5.70
2022-12-26T23:40:40.775Z,4.67
2022-12-26T23:42:44.525Z,4.45
2022-12-26T23:44:48.077Z,4.77
2022-12-26T23:46:51.592Z,2.83
2022-12-26T23:48:55.258Z,3.15
2022-12-26T23:51:07.566Z,2.72
2022-12-26T23:53:11.210Z,1.80
2022-12-26T23:55:14.782Z,2.03
2022-12-26T23:57:18.332Z,2.80
2022-12-26T23:59:22.028Z,2.60
